sensor_id;sensor_type;location;lat;lon;timestamp;P1;durP1;ratioP1;P2;durP2;ratioP2
8319;SDS011;4197;42.130;24.746;2023-06-22T00:01:21;13.50;;;11.55;;
8319;SDS011;4197;42.130;24.746;2023-06-22T00:03:50;14.60;;;12.10;;
8319;SDS011;4197;42.130;24.746;2023-06-22T00:06:18;15.60;;;11.68;;
8319;SDS011;4197;42.130;24.746;2023-06-22T00:08:47;15.90;;;12.68;;
8319;SDS011;4197;42.130;24.746;2023-06-22T00:11:15;12.60;;;10.93;;
8319;SDS011;4197;42.130;24.746;2023-06-22T00:13:44;12.07;;;10.85;;
8319;SDS011;4197;42.130;24.746;2023-06-22T00:16:14;13.40;;;11.65;;
8319;SDS011;4197;42.130;24.746;2023-06-22T00:18:42;13.15;;;11.60;;
8319;SDS011;4197;42.130;24.746;2023-06-22T00:21:13;14.25;;;11.60;;
8319;SDS011;4197;42.130;24.746;2023-06-22T00:23:42;14.65;;;11.73;;
8319;SDS011;4197;42.130;24.746;2023-06-22T00:26:10;14.15;;;11.18;;
8319;SDS011;4197;42.130;24.746;2023-06-22T00:28:39;13.02;;;11.73;;
8319;SDS011;4197;42.130;24.746;2023-06-22T00:31:09;14.23;;;11.73;;
8319;SDS011;4197;42.130;24.746;2023-06-22T00:33:37;16.70;;;12.18;;
8319;SDS011;4197;42.130;24.746;2023-06-22T00:36:06;13.13;;;11.73;;
8319;SDS011;4197;42.130;24.746;2023-06-22T00:38:34;15.38;;;12.38;;
8319;SDS011;4197;42.130;24.746;2023-06-22T00:41:06;14.48;;;12.98;;
8319;SDS011;4197;42.130;24.746;2023-06-22T00:43:35;12.25;;;11.05;;
8319;SDS011;4197;42.130;24.746;2023-06-22T00:46:03;14.35;;;12.40;;
8319;SDS011;4197;42.130;24.746;2023-06-22T00:48:33;12.57;;;11.27;;
8319;SDS011;4197;42.130;24.746;2023-06-22T00:51:03;11.30;;;10.10;;
8319;SDS011;4197;42.130;24.746;2023-06-22T00:53:31;13.40;;;10.55;;
8319;SDS011;4197;42.130;24.746;2023-06-22T00:56:01;16.13;;;10.82;;
8319;SDS011;4197;42.130;24.746;2023-06-22T00:58:30;14.13;;;10.02;;
8319;SDS011;4197;42.130;24.746;2023-06-22T01:00:59;11.18;;;9.95;;
8319;SDS011;4197;42.130;24.746;2023-06-22T01:03:28;13.63;;;10.32;;
8319;SDS011;4197;42.130;24.746;2023-06-22T01:05:59;11.07;;;9.73;;
8319;SDS011;4197;42.130;24.746;2023-06-22T01:08:44;13.57;;;10.50;;
8319;SDS011;4197;42.130;24.746;2023-06-22T01:11:20;21.27;;;10.60;;
8319;SDS011;4197;42.130;24.746;2023-06-22T01:13:54;12.65;;;10.35;;
8319;SDS011;4197;42.130;24.746;2023-06-22T01:16:29;18.58;;;10.60;;
8319;SDS011;4197;42.130;24.746;2023-06-22T01:19:00;12.63;;;9.52;;
8319;SDS011;4197;42.130;24.746;2023-06-22T01:21:53;12.32;;;10.20;;
8319;SDS011;4197;42.130;24.746;2023-06-22T01:24:25;15.80;;;11.32;;
8319;SDS011;4197;42.130;24.746;2023-06-22T01:27:00;15.73;;;12.10;;
8319;SDS011;4197;42.130;24.746;2023-06-22T01:29:50;13.80;;;12.40;;
8319;SDS011;4197;42.130;24.746;2023-06-22T01:32:20;14.80;;;12.45;;
8319;SDS011;4197;42.130;24.746;2023-06-22T01:34:49;17.52;;;13.18;;
8319;SDS011;4197;42.130;24.746;2023-06-22T01:37:18;16.80;;;13.07;;
8319;SDS011;4197;42.130;24.746;2023-06-22T01:39:47;16.73;;;13.30;;
8319;SDS011;4197;42.130;24.746;2023-06-22T01:42:16;20.75;;;14.18;;
8319;SDS011;4197;42.130;24.746;2023-06-22T01:44:45;17.67;;;14.20;;
8319;SDS011;4197;42.130;24.746;2023-06-22T01:47:15;21.00;;;14.10;;
8319;SDS011;4197;42.130;24.746;2023-06-22T01:49:44;17.83;;;13.75;;
8319;SDS011;4197;42.130;24.746;2023-06-22T01:52:14;18.48;;;14.95;;
8319;SDS011;4197;42.130;24.746;2023-06-22T01:54:42;19.08;;;14.63;;
8319;SDS011;4197;42.130;24.746;2023-06-22T01:57:11;25.80;;;14.65;;
8319;SDS011;4197;42.130;24.746;2023-06-22T01:59:42;19.95;;;14.77;;
8319;SDS011;4197;42.130;24.746;2023-06-22T02:02:19;16.23;;;14.43;;
8319;SDS011;4197;42.130;24.746;2023-06-22T02:04:55;17.73;;;13.40;;
8319;SDS011;4197;42.130;24.746;2023-06-22T02:07:28;15.05;;;12.18;;
8319;SDS011;4197;42.130;24.746;2023-06-22T02:10:00;15.70;;;13.02;;
8319;SDS011;4197;42.130;24.746;2023-06-22T02:12:31;15.95;;;13.82;;
8319;SDS011;4197;42.130;24.746;2023-06-22T02:15:02;13.90;;;12.40;;
8319;SDS011;4197;42.130;24.746;2023-06-22T02:17:34;16.20;;;12.32;;
8319;SDS011;4197;42.130;24.746;2023-06-22T02:20:02;16.75;;;12.98;;
8319;SDS011;4197;42.130;24.746;2023-06-22T02:22:35;14.25;;;12.63;;
8319;SDS011;4197;42.130;24.746;2023-06-22T02:25:03;18.75;;;12.70;;
8319;SDS011;4197;42.130;24.746;2023-06-22T02:27:31;15.27;;;12.15;;
8319;SDS011;4197;42.130;24.746;2023-06-22T02:30:00;13.35;;;12.02;;
8319;SDS011;4197;42.130;24.746;2023-06-22T02:32:28;15.23;;;13.27;;
8319;SDS011;4197;42.130;24.746;2023-06-22T02:34:58;19.25;;;13.15;;
8319;SDS011;4197;42.130;24.746;2023-06-22T02:37:30;14.07;;;12.65;;
8319;SDS011;4197;42.130;24.746;2023-06-22T02:39:59;14.15;;;12.63;;
8319;SDS011;4197;42.130;24.746;2023-06-22T02:42:27;16.92;;;13.05;;
8319;SDS011;4197;42.130;24.746;2023-06-22T02:44:55;15.88;;;12.60;;
8319;SDS011;4197;42.130;24.746;2023-06-22T02:47:23;14.27;;;12.77;;
8319;SDS011;4197;42.130;24.746;2023-06-22T02:49:51;21.67;;;12.23;;
8319;SDS011;4197;42.130;24.746;2023-06-22T02:52:21;21.23;;;13.10;;
8319;SDS011;4197;42.130;24.746;2023-06-22T02:54:49;17.02;;;13.05;;
8319;SDS011;4197;42.130;24.746;2023-06-22T02:57:17;19.85;;;13.75;;
8319;SDS011;4197;42.130;24.746;2023-06-22T02:59:45;15.95;;;12.90;;
8319;SDS011;4197;42.130;24.746;2023-06-22T03:02:14;19.45;;;13.52;;
8319;SDS011;4197;42.130;24.746;2023-06-22T03:04:42;15.98;;;13.00;;
8319;SDS011;4197;42.130;24.746;2023-06-22T03:07:15;13.98;;;12.57;;
8319;SDS011;4197;42.130;24.746;2023-06-22T03:09:45;15.00;;;12.30;;
8319;SDS011;4197;42.130;24.746;2023-06-22T03:12:14;16.63;;;12.90;;
8319;SDS011;4197;42.130;24.746;2023-06-22T03:14:42;14.73;;;11.00;;
8319;SDS011;4197;42.130;24.746;2023-06-22T03:17:11;12.68;;;10.50;;
8319;SDS011;4197;42.130;24.746;2023-06-22T03:19:41;11.95;;;10.25;;
8319;SDS011;4197;42.130;24.746;2023-06-22T03:22:12;14.40;;;10.90;;
8319;SDS011;4197;42.130;24.746;2023-06-22T03:24:41;13.45;;;10.90;;
8319;SDS011;4197;42.130;24.746;2023-06-22T03:27:11;15.13;;;10.55;;
8319;SDS011;4197;42.130;24.746;2023-06-22T03:29:39;14.45;;;12.50;;
8319;SDS011;4197;42.130;24.746;2023-06-22T03:32:07;15.75;;;13.90;;
8319;SDS011;4197;42.130;24.746;2023-06-22T03:34:36;16.95;;;12.68;;
8319;SDS011;4197;42.130;24.746;2023-06-22T03:37:04;13.88;;;11.82;;
8319;SDS011;4197;42.130;24.746;2023-06-22T03:39:32;14.10;;;12.05;;
8319;SDS011;4197;42.130;24.746;2023-06-22T03:42:00;20.10;;;14.30;;
8319;SDS011;4197;42.130;24.746;2023-06-22T03:44:29;14.18;;;12.65;;
8319;SDS011;4197;42.130;24.746;2023-06-22T03:46:58;13.95;;;11.93;;
8319;SDS011;4197;42.130;24.746;2023-06-22T03:49:26;11.40;;;10.20;;
8319;SDS011;4197;42.130;24.746;2023-06-22T03:51:54;23.10;;;11.50;;
8319;SDS011;4197;42.130;24.746;2023-06-22T03:54:22;17.40;;;11.15;;
8319;SDS011;4197;42.130;24.746;2023-06-22T03:56:51;12.55;;;11.30;;
8319;SDS011;4197;42.130;24.746;2023-06-22T03:59:19;14.45;;;11.75;;
8319;SDS011;4197;42.130;24.746;2023-06-22T04:01:48;17.55;;;11.80;;
8319;SDS011;4197;42.130;24.746;2023-06-22T04:04:17;17.20;;;11.82;;
8319;SDS011;4197;42.130;24.746;2023-06-22T04:06:46;13.55;;;10.80;;
8319;SDS011;4197;42.130;24.746;2023-06-22T04:09:14;14.63;;;11.63;;
8319;SDS011;4197;42.130;24.746;2023-06-22T04:11:42;12.82;;;11.00;;
8319;SDS011;4197;42.130;24.746;2023-06-22T04:14:11;17.17;;;11.35;;
8319;SDS011;4197;42.130;24.746;2023-06-22T04:16:39;15.25;;;11.95;;
8319;SDS011;4197;42.130;24.746;2023-06-22T04:19:09;16.55;;;13.50;;
8319;SDS011;4197;42.130;24.746;2023-06-22T04:21:42;17.55;;;13.10;;
8319;SDS011;4197;42.130;24.746;2023-06-22T04:24:10;22.80;;;13.23;;
8319;SDS011;4197;42.130;24.746;2023-06-22T04:26:39;17.42;;;12.52;;
8319;SDS011;4197;42.130;24.746;2023-06-22T04:29:08;15.68;;;13.00;;
8319;SDS011;4197;42.130;24.746;2023-06-22T04:31:36;20.48;;;12.85;;
8319;SDS011;4197;42.130;24.746;2023-06-22T04:34:05;18.23;;;12.48;;
8319;SDS011;4197;42.130;24.746;2023-06-22T04:36:37;15.20;;;12.30;;
8319;SDS011;4197;42.130;24.746;2023-06-22T04:39:07;15.60;;;10.48;;
8319;SDS011;4197;42.130;24.746;2023-06-22T04:41:37;28.10;;;11.63;;
8319;SDS011;4197;42.130;24.746;2023-06-22T04:44:12;15.60;;;10.75;;
8319;SDS011;4197;42.130;24.746;2023-06-22T04:46:40;20.25;;;10.35;;
8319;SDS011;4197;42.130;24.746;2023-06-22T04:49:08;15.80;;;10.38;;
8319;SDS011;4197;42.130;24.746;2023-06-22T04:51:39;13.40;;;11.00;;
8319;SDS011;4197;42.130;24.746;2023-06-22T04:54:08;21.20;;;11.45;;
8319;SDS011;4197;42.130;24.746;2023-06-22T04:56:37;15.55;;;12.88;;
8319;SDS011;4197;42.130;24.746;2023-06-22T04:59:07;19.75;;;11.55;;
8319;SDS011;4197;42.130;24.746;2023-06-22T05:01:39;14.50;;;11.18;;
8319;SDS011;4197;42.130;24.746;2023-06-22T05:04:07;17.85;;;11.93;;
8319;SDS011;4197;42.130;24.746;2023-06-22T05:06:36;19.55;;;10.65;;
8319;SDS011;4197;42.130;24.746;2023-06-22T05:09:08;22.73;;;11.30;;
8319;SDS011;4197;42.130;24.746;2023-06-22T05:11:36;16.13;;;11.07;;
8319;SDS011;4197;42.130;24.746;2023-06-22T05:14:04;17.92;;;13.75;;
8319;SDS011;4197;42.130;24.746;2023-06-22T05:16:34;18.98;;;14.98;;
8319;SDS011;4197;42.130;24.746;2023-06-22T05:19:03;16.77;;;11.35;;
8319;SDS011;4197;42.130;24.746;2023-06-22T05:21:32;18.23;;;13.35;;
8319;SDS011;4197;42.130;24.746;2023-06-22T05:24:00;20.15;;;12.63;;
8319;SDS011;4197;42.130;24.746;2023-06-22T05:26:31;18.63;;;11.57;;
8319;SDS011;4197;42.130;24.746;2023-06-22T05:29:04;12.68;;;10.90;;
8319;SDS011;4197;42.130;24.746;2023-06-22T05:31:33;20.30;;;13.70;;
8319;SDS011;4197;42.130;24.746;2023-06-22T05:34:02;24.98;;;16.35;;
8319;SDS011;4197;42.130;24.746;2023-06-22T05:36:31;27.15;;;17.75;;
8319;SDS011;4197;42.130;24.746;2023-06-22T05:39:00;28.15;;;18.90;;
8319;SDS011;4197;42.130;24.746;2023-06-22T05:41:40;19.60;;;12.57;;
8319;SDS011;4197;42.130;24.746;2023-06-22T05:44:10;20.02;;;12.20;;
8319;SDS011;4197;42.130;24.746;2023-06-22T05:46:40;15.15;;;10.85;;
8319;SDS011;4197;42.130;24.746;2023-06-22T05:49:11;12.70;;;9.07;;
8319;SDS011;4197;42.130;24.746;2023-06-22T05:51:44;14.52;;;9.15;;
8319;SDS011;4197;42.130;24.746;2023-06-22T05:54:13;12.85;;;10.07;;
8319;SDS011;4197;42.130;24.746;2023-06-22T05:56:46;13.55;;;10.30;;
8319;SDS011;4197;42.130;24.746;2023-06-22T05:59:15;12.43;;;9.57;;
8319;SDS011;4197;42.130;24.746;2023-06-22T06:01:45;16.92;;;9.68;;
8319;SDS011;4197;42.130;24.746;2023-06-22T06:04:16;13.48;;;9.70;;
8319;SDS011;4197;42.130;24.746;2023-06-22T06:06:45;17.30;;;9.55;;
8319;SDS011;4197;42.130;24.746;2023-06-22T06:09:15;10.27;;;9.18;;
8319;SDS011;4197;42.130;24.746;2023-06-22T06:11:43;13.13;;;10.25;;
8319;SDS011;4197;42.130;24.746;2023-06-22T06:14:14;14.05;;;9.18;;
8319;SDS011;4197;42.130;24.746;2023-06-22T06:16:44;13.05;;;8.88;;
8319;SDS011;4197;42.130;24.746;2023-06-22T06:19:13;17.25;;;8.50;;
8319;SDS011;4197;42.130;24.746;2023-06-22T06:21:41;10.80;;;8.07;;
8319;SDS011;4197;42.130;24.746;2023-06-22T06:24:10;14.82;;;8.88;;
8319;SDS011;4197;42.130;24.746;2023-06-22T06:26:39;8.77;;;7.60;;
8319;SDS011;4197;42.130;24.746;2023-06-22T06:29:09;8.55;;;7.63;;
8319;SDS011;4197;42.130;24.746;2023-06-22T06:31:39;12.60;;;8.07;;
8319;SDS011;4197;42.130;24.746;2023-06-22T06:34:07;8.27;;;7.40;;
8319;SDS011;4197;42.130;24.746;2023-06-22T06:36:36;12.10;;;7.80;;
8319;SDS011;4197;42.130;24.746;2023-06-22T06:39:04;10.63;;;7.72;;
8319;SDS011;4197;42.130;24.746;2023-06-22T06:41:32;11.25;;;7.88;;
8319;SDS011;4197;42.130;24.746;2023-06-22T06:44:01;11.18;;;8.25;;
8319;SDS011;4197;42.130;24.746;2023-06-22T06:46:31;10.85;;;8.20;;
8319;SDS011;4197;42.130;24.746;2023-06-22T06:49:01;8.63;;;7.65;;
8319;SDS011;4197;42.130;24.746;2023-06-22T06:51:29;11.07;;;8.00;;
8319;SDS011;4197;42.130;24.746;2023-06-22T06:53:58;8.80;;;7.97;;
8319;SDS011;4197;42.130;24.746;2023-06-22T06:56:27;12.93;;;8.13;;
8319;SDS011;4197;42.130;24.746;2023-06-22T06:58:56;12.57;;;8.20;;
8319;SDS011;4197;42.130;24.746;2023-06-22T07:01:25;12.23;;;7.68;;
8319;SDS011;4197;42.130;24.746;2023-06-22T07:03:53;10.73;;;7.90;;
8319;SDS011;4197;42.130;24.746;2023-06-22T07:06:23;12.07;;;8.52;;
8319;SDS011;4197;42.130;24.746;2023-06-22T07:08:55;8.65;;;7.15;;
8319;SDS011;4197;42.130;24.746;2023-06-22T07:11:23;15.20;;;8.50;;
8319;SDS011;4197;42.130;24.746;2023-06-22T07:13:51;10.60;;;7.50;;
8319;SDS011;4197;42.130;24.746;2023-06-22T07:16:20;12.77;;;8.55;;
8319;SDS011;4197;42.130;24.746;2023-06-22T07:18:49;9.52;;;6.90;;
8319;SDS011;4197;42.130;24.746;2023-06-22T07:21:18;12.65;;;8.55;;
8319;SDS011;4197;42.130;24.746;2023-06-22T07:23:48;12.60;;;8.40;;
8319;SDS011;4197;42.130;24.746;2023-06-22T07:26:16;11.88;;;7.85;;
8319;SDS011;4197;42.130;24.746;2023-06-22T07:28:44;10.43;;;7.47;;
8319;SDS011;4197;42.130;24.746;2023-06-22T07:31:12;8.02;;;7.32;;
8319;SDS011;4197;42.130;24.746;2023-06-22T07:33:41;10.18;;;7.45;;
8319;SDS011;4197;42.130;24.746;2023-06-22T07:36:09;9.43;;;7.75;;
8319;SDS011;4197;42.130;24.746;2023-06-22T07:38:38;16.13;;;7.40;;
8319;SDS011;4197;42.130;24.746;2023-06-22T07:41:07;14.00;;;7.85;;
8319;SDS011;4197;42.130;24.746;2023-06-22T07:43:36;9.18;;;7.25;;
8319;SDS011;4197;42.130;24.746;2023-06-22T07:46:05;11.05;;;7.25;;
8319;SDS011;4197;42.130;24.746;2023-06-22T07:48:36;10.93;;;7.25;;
8319;SDS011;4197;42.130;24.746;2023-06-22T07:51:05;8.40;;;7.20;;
8319;SDS011;4197;42.130;24.746;2023-06-22T07:53:34;8.50;;;6.90;;
8319;SDS011;4197;42.130;24.746;2023-06-22T07:56:03;10.63;;;7.03;;
8319;SDS011;4197;42.130;24.746;2023-06-22T07:58:35;8.38;;;7.57;;
8319;SDS011;4197;42.130;24.746;2023-06-22T08:01:03;10.23;;;7.13;;
8319;SDS011;4197;42.130;24.746;2023-06-22T08:03:35;10.82;;;6.95;;
8319;SDS011;4197;42.130;24.746;2023-06-22T08:06:04;10.20;;;7.00;;
8319;SDS011;4197;42.130;24.746;2023-06-22T08:08:32;7.15;;;6.45;;
8319;SDS011;4197;42.130;24.746;2023-06-22T08:11:01;7.63;;;6.53;;
8319;SDS011;4197;42.130;24.746;2023-06-22T08:13:29;11.45;;;6.90;;
8319;SDS011;4197;42.130;24.746;2023-06-22T08:15:59;11.18;;;6.40;;
8319;SDS011;4197;42.130;24.746;2023-06-22T08:18:28;11.27;;;7.22;;
8319;SDS011;4197;42.130;24.746;2023-06-22T08:20:56;7.68;;;6.25;;
8319;SDS011;4197;42.130;24.746;2023-06-22T08:23:25;11.90;;;7.13;;
8319;SDS011;4197;42.130;24.746;2023-06-22T08:25:53;12.63;;;6.80;;
8319;SDS011;4197;42.130;24.746;2023-06-22T08:28:22;8.60;;;6.13;;
8319;SDS011;4197;42.130;24.746;2023-06-22T08:30:51;7.68;;;6.97;;
8319;SDS011;4197;42.130;24.746;2023-06-22T08:33:23;11.00;;;7.15;;
8319;SDS011;4197;42.130;24.746;2023-06-22T08:35:55;8.60;;;6.40;;
8319;SDS011;4197;42.130;24.746;2023-06-22T08:38:23;8.10;;;6.13;;
8319;SDS011;4197;42.130;24.746;2023-06-22T08:40:52;9.30;;;6.57;;
8319;SDS011;4197;42.130;24.746;2023-06-22T08:43:20;10.20;;;6.78;;
8319;SDS011;4197;42.130;24.746;2023-06-22T08:45:48;12.65;;;7.05;;
8319;SDS011;4197;42.130;24.746;2023-06-22T08:48:16;8.73;;;6.05;;
8319;SDS011;4197;42.130;24.746;2023-06-22T08:50:46;9.25;;;6.05;;
8319;SDS011;4197;42.130;24.746;2023-06-22T08:53:14;8.68;;;6.97;;
8319;SDS011;4197;42.130;24.746;2023-06-22T08:55:43;11.20;;;6.47;;
8319;SDS011;4197;42.130;24.746;2023-06-22T08:58:11;11.68;;;6.05;;
8319;SDS011;4197;42.130;24.746;2023-06-22T09:00:39;7.68;;;6.35;;
8319;SDS011;4197;42.130;24.746;2023-06-22T09:03:07;8.00;;;6.30;;
8319;SDS011;4197;42.130;24.746;2023-06-22T09:05:36;20.77;;;7.85;;
8319;SDS011;4197;42.130;24.746;2023-06-22T09:08:06;7.93;;;6.85;;
8319;SDS011;4197;42.130;24.746;2023-06-22T09:10:34;8.50;;;6.72;;
8319;SDS011;4197;42.130;24.746;2023-06-22T09:13:03;7.88;;;6.35;;
8319;SDS011;4197;42.130;24.746;2023-06-22T09:15:31;8.25;;;7.00;;
8319;SDS011;4197;42.130;24.746;2023-06-22T09:18:01;8.52;;;6.07;;
8319;SDS011;4197;42.130;24.746;2023-06-22T09:20:29;7.72;;;6.45;;
8319;SDS011;4197;42.130;24.746;2023-06-22T09:22:58;7.63;;;6.93;;
8319;SDS011;4197;42.130;24.746;2023-06-22T09:25:28;10.98;;;6.40;;
8319;SDS011;4197;42.130;24.746;2023-06-22T09:27:57;7.03;;;6.30;;
8319;SDS011;4197;42.130;24.746;2023-06-22T09:30:26;8.73;;;6.43;;
8319;SDS011;4197;42.130;24.746;2023-06-22T09:32:55;11.27;;;6.93;;
8319;SDS011;4197;42.130;24.746;2023-06-22T09:35:23;6.30;;;5.70;;
8319;SDS011;4197;42.130;24.746;2023-06-22T09:37:52;12.10;;;6.53;;
8319;SDS011;4197;42.130;24.746;2023-06-22T09:40:21;11.57;;;7.13;;
8319;SDS011;4197;42.130;24.746;2023-06-22T09:42:52;7.18;;;6.30;;
8319;SDS011;4197;42.130;24.746;2023-06-22T09:45:20;8.27;;;5.95;;
8319;SDS011;4197;42.130;24.746;2023-06-22T09:47:48;19.10;;;6.90;;
8319;SDS011;4197;42.130;24.746;2023-06-22T09:50:17;14.82;;;6.75;;
8319;SDS011;4197;42.130;24.746;2023-06-22T09:52:46;12.45;;;6.93;;
8319;SDS011;4197;42.130;24.746;2023-06-22T09:55:17;7.15;;;6.20;;
8319;SDS011;4197;42.130;24.746;2023-06-22T09:57:45;9.25;;;6.32;;
8319;SDS011;4197;42.130;24.746;2023-06-22T10:00:16;9.57;;;6.00;;
8319;SDS011;4197;42.130;24.746;2023-06-22T10:02:48;10.15;;;6.28;;
8319;SDS011;4197;42.130;24.746;2023-06-22T10:05:17;6.93;;;5.70;;
8319;SDS011;4197;42.130;24.746;2023-06-22T10:07:46;6.47;;;5.88;;
8319;SDS011;4197;42.130;24.746;2023-06-22T10:10:14;8.20;;;6.07;;
8319;SDS011;4197;42.130;24.746;2023-06-22T10:12:43;9.23;;;6.55;;
8319;SDS011;4197;42.130;24.746;2023-06-22T10:15:13;7.63;;;6.60;;
8319;SDS011;4197;42.130;24.746;2023-06-22T10:17:43;7.25;;;6.13;;
8319;SDS011;4197;42.130;24.746;2023-06-22T10:20:15;7.40;;;5.97;;
8319;SDS011;4197;42.130;24.746;2023-06-22T10:22:45;8.85;;;6.18;;
8319;SDS011;4197;42.130;24.746;2023-06-22T10:25:14;6.28;;;5.70;;
8319;SDS011;4197;42.130;24.746;2023-06-22T10:27:42;7.07;;;5.80;;
8319;SDS011;4197;42.130;24.746;2023-06-22T10:30:11;14.32;;;6.30;;
8319;SDS011;4197;42.130;24.746;2023-06-22T10:32:41;7.38;;;6.35;;
8319;SDS011;4197;42.130;24.746;2023-06-22T10:35:12;7.53;;;6.43;;
8319;SDS011;4197;42.130;24.746;2023-06-22T10:37:43;8.00;;;6.57;;
8319;SDS011;4197;42.130;24.746;2023-06-22T10:40:12;14.75;;;7.38;;
8319;SDS011;4197;42.130;24.746;2023-06-22T10:42:41;6.40;;;5.88;;
8319;SDS011;4197;42.130;24.746;2023-06-22T10:45:10;8.00;;;6.85;;
8319;SDS011;4197;42.130;24.746;2023-06-22T10:47:39;9.07;;;6.32;;
8319;SDS011;4197;42.130;24.746;2023-06-22T10:50:09;8.57;;;6.45;;
8319;SDS011;4197;42.130;24.746;2023-06-22T10:52:39;7.25;;;6.55;;
8319;SDS011;4197;42.130;24.746;2023-06-22T10:55:09;7.47;;;6.70;;
8319;SDS011;4197;42.130;24.746;2023-06-22T10:57:38;9.55;;;6.40;;
8319;SDS011;4197;42.130;24.746;2023-06-22T11:00:10;7.05;;;6.35;;
8319;SDS011;4197;42.130;24.746;2023-06-22T11:02:40;8.35;;;6.68;;
8319;SDS011;4197;42.130;24.746;2023-06-22T11:05:09;7.30;;;6.60;;
8319;SDS011;4197;42.130;24.746;2023-06-22T11:07:37;8.43;;;6.60;;
8319;SDS011;4197;42.130;24.746;2023-06-22T11:10:10;27.55;;;8.55;;
8319;SDS011;4197;42.130;24.746;2023-06-22T11:12:41;6.85;;;6.25;;
8319;SDS011;4197;42.130;24.746;2023-06-22T11:15:10;14.00;;;7.15;;
8319;SDS011;4197;42.130;24.746;2023-06-22T11:17:38;7.50;;;6.30;;
8319;SDS011;4197;42.130;24.746;2023-06-22T11:20:07;6.90;;;6.10;;
8319;SDS011;4197;42.130;24.746;2023-06-22T11:22:53;7.00;;;6.00;;
8319;SDS011;4197;42.130;24.746;2023-06-22T11:25:22;6.97;;;6.32;;
8319;SDS011;4197;42.130;24.746;2023-06-22T11:27:50;10.10;;;7.13;;
8319;SDS011;4197;42.130;24.746;2023-06-22T11:30:20;8.60;;;6.90;;
8319;SDS011;4197;42.130;24.746;2023-06-22T11:32:49;11.45;;;6.15;;
8319;SDS011;4197;42.130;24.746;2023-06-22T11:35:18;6.78;;;6.18;;
8319;SDS011;4197;42.130;24.746;2023-06-22T11:37:46;10.77;;;6.35;;
8319;SDS011;4197;42.130;24.746;2023-06-22T11:40:16;6.72;;;5.90;;
8319;SDS011;4197;42.130;24.746;2023-06-22T11:42:44;7.13;;;6.43;;
8319;SDS011;4197;42.130;24.746;2023-06-22T11:45:12;10.13;;;7.10;;
8319;SDS011;4197;42.130;24.746;2023-06-22T11:47:40;16.45;;;7.07;;
8319;SDS011;4197;42.130;24.746;2023-06-22T11:50:08;7.97;;;6.28;;
8319;SDS011;4197;42.130;24.746;2023-06-22T11:52:37;7.55;;;6.18;;
8319;SDS011;4197;42.130;24.746;2023-06-22T11:55:06;6.85;;;6.05;;
8319;SDS011;4197;42.130;24.746;2023-06-22T11:57:37;6.88;;;6.18;;
8319;SDS011;4197;42.130;24.746;2023-06-22T12:00:06;8.30;;;6.50;;
8319;SDS011;4197;42.130;24.746;2023-06-22T12:02:43;6.95;;;6.35;;
8319;SDS011;4197;42.130;24.746;2023-06-22T12:05:11;6.75;;;6.15;;
8319;SDS011;4197;42.130;24.746;2023-06-22T12:07:40;8.70;;;6.78;;
8319;SDS011;4197;42.130;24.746;2023-06-22T12:10:08;7.80;;;7.10;;
8319;SDS011;4197;42.130;24.746;2023-06-22T12:12:39;7.82;;;6.65;;
8319;SDS011;4197;42.130;24.746;2023-06-22T12:15:08;10.15;;;7.22;;
8319;SDS011;4197;42.130;24.746;2023-06-22T12:17:40;8.20;;;6.78;;
8319;SDS011;4197;42.130;24.746;2023-06-22T12:20:08;6.72;;;6.05;;
8319;SDS011;4197;42.130;24.746;2023-06-22T12:22:37;7.63;;;6.68;;
8319;SDS011;4197;42.130;24.746;2023-06-22T12:25:05;8.65;;;6.80;;
8319;SDS011;4197;42.130;24.746;2023-06-22T12:27:34;15.38;;;7.15;;
8319;SDS011;4197;42.130;24.746;2023-06-22T12:30:05;7.03;;;5.90;;
8319;SDS011;4197;42.130;24.746;2023-06-22T12:32:34;10.88;;;6.75;;
8319;SDS011;4197;42.130;24.746;2023-06-22T12:35:02;9.60;;;6.40;;
8319;SDS011;4197;42.130;24.746;2023-06-22T12:37:31;8.00;;;6.63;;
8319;SDS011;4197;42.130;24.746;2023-06-22T12:40:00;17.30;;;7.00;;
8319;SDS011;4197;42.130;24.746;2023-06-22T12:42:30;7.57;;;6.70;;
8319;SDS011;4197;42.130;24.746;2023-06-22T12:44:58;10.57;;;7.25;;
8319;SDS011;4197;42.130;24.746;2023-06-22T12:47:28;9.93;;;6.45;;
8319;SDS011;4197;42.130;24.746;2023-06-22T12:49:56;10.43;;;7.00;;
8319;SDS011;4197;42.130;24.746;2023-06-22T12:52:24;11.02;;;7.30;;
8319;SDS011;4197;42.130;24.746;2023-06-22T12:54:52;8.68;;;6.78;;
8319;SDS011;4197;42.130;24.746;2023-06-22T12:57:21;15.35;;;7.47;;
8319;SDS011;4197;42.130;24.746;2023-06-22T12:59:50;6.68;;;5.95;;
8319;SDS011;4197;42.130;24.746;2023-06-22T13:02:18;8.55;;;6.30;;
8319;SDS011;4197;42.130;24.746;2023-06-22T13:04:48;11.57;;;6.88;;
8319;SDS011;4197;42.130;24.746;2023-06-22T13:07:16;18.13;;;7.30;;
8319;SDS011;4197;42.130;24.746;2023-06-22T13:09:49;15.05;;;7.65;;
8319;SDS011;4197;42.130;24.746;2023-06-22T13:12:19;11.45;;;6.75;;
8319;SDS011;4197;42.130;24.746;2023-06-22T13:14:48;9.75;;;7.13;;
8319;SDS011;4197;42.130;24.746;2023-06-22T13:17:17;8.52;;;6.93;;
8319;SDS011;4197;42.130;24.746;2023-06-22T13:19:45;7.82;;;6.55;;
8319;SDS011;4197;42.130;24.746;2023-06-22T13:22:28;14.32;;;6.78;;
8319;SDS011;4197;42.130;24.746;2023-06-22T13:24:57;15.30;;;7.78;;
8319;SDS011;4197;42.130;24.746;2023-06-22T13:27:26;14.85;;;7.18;;
8319;SDS011;4197;42.130;24.746;2023-06-22T13:29:55;15.15;;;6.88;;
8319;SDS011;4197;42.130;24.746;2023-06-22T13:32:23;11.35;;;6.70;;
8319;SDS011;4197;42.130;24.746;2023-06-22T13:34:51;7.88;;;7.07;;
8319;SDS011;4197;42.130;24.746;2023-06-22T13:37:20;9.52;;;6.78;;
8319;SDS011;4197;42.130;24.746;2023-06-22T13:39:49;7.93;;;6.68;;
8319;SDS011;4197;42.130;24.746;2023-06-22T13:42:18;9.05;;;7.43;;
8319;SDS011;4197;42.130;24.746;2023-06-22T13:44:46;12.02;;;7.35;;
8319;SDS011;4197;42.130;24.746;2023-06-22T13:47:15;11.82;;;7.28;;
8319;SDS011;4197;42.130;24.746;2023-06-22T13:49:43;17.95;;;8.57;;
8319;SDS011;4197;42.130;24.746;2023-06-22T13:52:11;12.57;;;7.75;;
8319;SDS011;4197;42.130;24.746;2023-06-22T13:54:39;28.38;;;7.78;;
8319;SDS011;4197;42.130;24.746;2023-06-22T13:57:09;21.73;;;7.10;;
8319;SDS011;4197;42.130;24.746;2023-06-22T13:59:37;15.15;;;7.20;;
8319;SDS011;4197;42.130;24.746;2023-06-22T14:02:05;17.85;;;8.13;;
8319;SDS011;4197;42.130;24.746;2023-06-22T14:04:34;10.25;;;7.75;;
8319;SDS011;4197;42.130;24.746;2023-06-22T14:07:02;9.13;;;6.55;;
8319;SDS011;4197;42.130;24.746;2023-06-22T14:09:30;19.92;;;8.07;;
8319;SDS011;4197;42.130;24.746;2023-06-22T14:12:01;11.60;;;7.80;;
8319;SDS011;4197;42.130;24.746;2023-06-22T14:14:33;16.42;;;7.85;;
8319;SDS011;4197;42.130;24.746;2023-06-22T14:17:02;13.55;;;7.70;;
8319;SDS011;4197;42.130;24.746;2023-06-22T14:19:31;19.48;;;8.80;;
8319;SDS011;4197;42.130;24.746;2023-06-22T14:21:59;13.82;;;8.15;;
8319;SDS011;4197;42.130;24.746;2023-06-22T14:24:27;17.02;;;7.75;;
8319;SDS011;4197;42.130;24.746;2023-06-22T14:26:56;14.38;;;7.65;;
8319;SDS011;4197;42.130;24.746;2023-06-22T14:29:25;15.73;;;7.70;;
8319;SDS011;4197;42.130;24.746;2023-06-22T14:31:54;13.13;;;7.35;;
8319;SDS011;4197;42.130;24.746;2023-06-22T14:34:22;12.43;;;7.63;;
8319;SDS011;4197;42.130;24.746;2023-06-22T14:36:51;13.27;;;8.38;;
8319;SDS011;4197;42.130;24.746;2023-06-22T14:39:19;23.85;;;9.18;;
8319;SDS011;4197;42.130;24.746;2023-06-22T14:41:48;14.65;;;9.00;;
8319;SDS011;4197;42.130;24.746;2023-06-22T14:44:16;42.65;;;10.65;;
8319;SDS011;4197;42.130;24.746;2023-06-22T14:46:44;26.83;;;8.13;;
8319;SDS011;4197;42.130;24.746;2023-06-22T14:49:14;21.15;;;8.93;;
8319;SDS011;4197;42.130;24.746;2023-06-22T14:51:42;13.10;;;7.72;;
8319;SDS011;4197;42.130;24.746;2023-06-22T14:54:10;17.00;;;8.70;;
8319;SDS011;4197;42.130;24.746;2023-06-22T14:56:38;27.92;;;10.10;;
8319;SDS011;4197;42.130;24.746;2023-06-22T14:59:07;8.95;;;7.70;;